Weather History for KD39 - May, 2013

Change the Weather History Date:

Sunday, May 19, 2013

  Actual Average (KGHW) Record (KGHW)
Temperature  
Mean Temperature 68 °F -  
Max Temperature 77 °F 70 °F 88 °F (1992)
Min Temperature 57 °F 45 °F 32 °F (1963)
Cooling Degree Days 3    
Growing Degree Days 18 (Base 50)    
Moisture  
Dew Point 62 °F    
Average Humidity 86    
Maximum Humidity 100    
Minimum Humidity 61    
Precipitation  
Precipitation 0.23 in - - ()
Sea Level Pressure  
Sea Level Pressure 29.66 in    
Wind  
Wind Speed 9 mph (SE)    
Max Wind Speed 20 mph    
Max Gust Speed 25 mph    
Visibility 8 miles    
Events Rain , Thunderstorm    
Averages and records for this station are not official NWS values.
T = Trace of Precipitation, MM = Missing Value Source: NWS Daily Summary

Daily Weather History Graph

Daily Weather History Graph

Search for Another Location

Airport or City:

Trip Planner

Search our weather history database for the weather conditions in past years. The results will help you decide how hot, cold, wet, or windy it might be!

Date:

Astronomy

May. 19, 2013 Rise Set
Actual Time 5:43 AM CDT 8:49 PM CDT
Civil Twilight 5:08 AM CDT 9:24 PM CDT
Nautical Twilight 4:22 AM CDT 10:10 PM CDT
Astronomical Twilight 3:27 AM CDT 11:06 PM CDT
Moon 2:37 PM CDT (5/19) 2:26 AM CDT (5/19)
Length of Visible Light 16h 16m
Length of Day
15h 05m
Waxing Gibbous, 65% of the Moon is Illuminated
May 19
Waxing Gibbous
May 24
Full
May 31
Last Quarter
Jun 8
New
Jun 16
First Quarter

Hourly Weather History & Observations

Time (CDT) Temp. Dew Point Humidity Pressure Visibility Wind Dir Wind Speed Gust Speed Precip Events Conditions
12:15 AM 64.4 °F 60.8 °F 88% 29.76 in 10.0 mi ESE 6.9 mph - N/A   Scattered Clouds
12:35 AM 64.4 °F 60.8 °F 88% 29.75 in 10.0 mi ESE 6.9 mph - N/A   Clear
12:55 AM 64.4 °F 60.8 °F 88% 29.74 in 10.0 mi East 6.9 mph - N/A   Clear
1:15 AM 62.6 °F 60.8 °F 94% 29.74 in 10.0 mi East 8.1 mph - N/A   Clear
1:35 AM 64.4 °F 60.8 °F 88% 29.75 in 10.0 mi East 6.9 mph - N/A   Scattered Clouds
1:55 AM 64.4 °F 60.8 °F 88% 29.75 in 10.0 mi East 6.9 mph - N/A   Overcast
2:15 AM 64.4 °F 60.8 °F 88% 29.75 in 10.0 mi East 8.1 mph - N/A   Overcast
2:35 AM 64.4 °F 60.8 °F 88% 29.76 in 10.0 mi East 6.9 mph - N/A   Overcast
2:55 AM 64.4 °F 60.8 °F 88% 29.76 in 10.0 mi East 8.1 mph - N/A   Overcast
3:15 AM 64.4 °F 60.8 °F 88% 29.76 in 10.0 mi ESE 5.8 mph - N/A   Mostly Cloudy
3:35 AM 64.4 °F 60.8 °F 88% 29.75 in 10.0 mi ESE 5.8 mph - N/A   Overcast
3:55 AM 64.4 °F 60.8 °F 88% 29.74 in 10.0 mi East 6.9 mph - N/A   Mostly Cloudy
4:15 AM 64.4 °F 60.8 °F 88% 29.72 in 10.0 mi East 9.2 mph - N/A   Mostly Cloudy
4:35 AM 64.4 °F 60.8 °F 88% 29.72 in 10.0 mi ESE 8.1 mph - N/A   Overcast
4:55 AM 64.4 °F 60.8 °F 88% 29.71 in 10.0 mi ESE 8.1 mph - N/A   Overcast
5:15 AM 64.4 °F 60.8 °F 88% 29.72 in 10.0 mi ESE 8.1 mph - N/A   Overcast
5:35 AM 64.4 °F 60.8 °F 88% 29.72 in 10.0 mi SSE 4.6 mph - N/A   Overcast
5:55 AM 64.4 °F 60.8 °F 88% 29.72 in 10.0 mi SE 6.9 mph - N/A Rain Light Rain
6:15 AM 62.6 °F 60.8 °F 94% 29.72 in 7.0 mi ESE 6.9 mph - 0.01 in Rain Light Rain
6:35 AM 62.6 °F 60.8 °F 94% 29.71 in 5.0 mi ESE 8.1 mph - 0.03 in Rain Rain
6:55 AM 62.6 °F 60.8 °F 94% 29.70 in 4.0 mi ESE 10.4 mph - 0.06 in Rain Rain
7:15 AM 62.6 °F 60.8 °F 94% 29.69 in 4.0 mi ESE 16.1 mph 23.0 mph 0.01 in Rain Light Rain
7:35 AM 62.6 °F 60.8 °F 94% 29.69 in 5.0 mi ESE 16.1 mph 23.0 mph 0.03 in Rain Light Rain
7:55 AM 62.6 °F 60.8 °F 94% 29.67 in 7.0 mi East 12.7 mph 18.4 mph 0.03 in Rain Light Rain
8:15 AM 62.6 °F 60.8 °F 94% 29.61 in 7.0 mi ENE 16.1 mph 21.9 mph 0.02 in Rain Light Rain
8:35 AM 62.6 °F 60.8 °F 94% 29.62 in 10.0 mi East 12.7 mph - 0.02 in   Light Drizzle
8:55 AM 62.6 °F 60.8 °F 94% 29.64 in 10.0 mi East 10.4 mph - 0.02 in   Mostly Cloudy
9:15 AM 62.6 °F 60.8 °F 94% 29.69 in 10.0 mi SE 15.0 mph - N/A   Overcast
9:55 AM 62.6 °F 62.6 °F 100% 29.70 in 7.0 mi SE 17.3 mph 25.3 mph 0.01 in Rain Light Rain
10:15 AM 62.6 °F 62.6 °F 100% 29.68 in 10.0 mi SE 12.7 mph - N/A   Overcast
10:35 AM 62.6 °F 60.8 °F 94% 29.67 in 7.0 mi ESE 12.7 mph - N/A   Overcast
10:55 AM 64.4 °F 62.6 °F 94% 29.67 in 7.0 mi SE 11.5 mph 20.7 mph N/A   Mostly Cloudy
11:15 AM 68.0 °F 62.6 °F 83% 29.66 in 10.0 mi SE 15.0 mph 20.7 mph N/A   Overcast
11:35 AM 66.2 °F 62.6 °F 88% 29.67 in 10.0 mi SSE 15.0 mph 21.9 mph N/A   Overcast
11:55 AM 69.8 °F 64.4 °F 83% 29.66 in 10.0 mi SE 13.8 mph - N/A   Overcast
12:15 PM 69.8 °F 64.4 °F 83% 29.67 in 10.0 mi SE 12.7 mph 20.7 mph N/A   Overcast
12:35 PM 69.8 °F 62.6 °F 78% 29.67 in 10.0 mi SSE 19.6 mph - N/A   Overcast
12:55 PM 71.6 °F 64.4 °F 78% 29.67 in 10.0 mi SSE 12.7 mph 21.9 mph N/A   Overcast
1:15 PM 71.6 °F 64.4 °F 78% 29.66 in 10.0 mi SSE 16.1 mph 20.7 mph N/A   Mostly Cloudy
1:35 PM 73.4 °F 64.4 °F 73% 29.64 in 10.0 mi SE 18.4 mph 24.2 mph N/A   Mostly Cloudy
2:15 PM 75.2 °F 62.6 °F 65% 29.62 in 10.0 mi SE 15.0 mph - N/A   Scattered Clouds
2:35 PM 77.0 °F 64.4 °F 65% 29.62 in 10.0 mi SSE 15.0 mph 18.4 mph N/A   Mostly Cloudy
2:55 PM 77.0 °F 62.6 °F 61% 29.63 in 10.0 mi SSE 16.1 mph 21.9 mph N/A   Mostly Cloudy
3:15 PM 75.2 °F 62.6 °F 65% 29.63 in 10.0 mi SSE 12.7 mph - N/A   Scattered Clouds
3:35 PM 77.0 °F 62.6 °F 61% 29.63 in 10.0 mi SSE 11.5 mph - N/A   Mostly Cloudy
3:55 PM 75.2 °F 62.6 °F 65% 29.63 in 10.0 mi South 15.0 mph - N/A   Mostly Cloudy
4:15 PM 73.4 °F 60.8 °F 65% 29.63 in 10.0 mi South 11.5 mph - N/A Thunderstorm Overcast
4:35 PM 71.6 °F 60.8 °F 69% 29.62 in 10.0 mi South 15.0 mph 23.0 mph N/A Rain Light Rain
4:55 PM 69.8 °F 64.4 °F 83% 29.62 in 10.0 mi SSE 6.9 mph - N/A Thunderstorm Mostly Cloudy
5:15 PM 69.8 °F 66.2 °F 88% 29.62 in 7.0 mi South 10.4 mph - N/A   Mostly Cloudy
5:35 PM 69.8 °F 64.4 °F 83% 29.62 in 7.0 mi South 9.2 mph - N/A   Overcast
5:55 PM 69.8 °F 62.6 °F 78% 29.62 in 10.0 mi South 9.2 mph - N/A   Overcast
6:15 PM 69.8 °F 60.8 °F 73% 29.61 in 10.0 mi South 9.2 mph - N/A   Overcast
6:35 PM 69.8 °F 62.6 °F 78% 29.60 in 10.0 mi SSW 8.1 mph - N/A   Overcast
6:55 PM 69.8 °F 62.6 °F 78% 29.60 in 10.0 mi WSW 12.7 mph - N/A Thunderstorm Overcast
7:15 PM 68.0 °F 62.6 °F 83% 29.60 in 10.0 mi SW 9.2 mph - N/A   Overcast
7:35 PM 66.2 °F 62.6 °F 88% 29.62 in 7.0 mi SW 9.2 mph - N/A Rain Light Rain
7:55 PM 64.4 °F 60.8 °F 88% 29.61 in 4.0 mi SW 5.8 mph - 0.04 in Rain Rain
8:15 PM 62.6 °F 60.8 °F 94% 29.58 in 2.5 mi Calm Calm - 0.05 in Rain Rain
8:35 PM 62.6 °F 62.6 °F 100% 29.58 in 4.0 mi Calm Calm - 0.06 in Rain Light Rain
8:55 PM 62.6 °F 60.8 °F 94% 29.58 in 5.0 mi Calm Calm - 0.06 in   Scattered Clouds
9:15 PM 62.6 °F 60.8 °F 94% 29.60 in 5.0 mi NNE 5.8 mph - N/A   Mostly Cloudy
9:35 PM 62.6 °F 62.6 °F 100% 29.61 in 4.0 mi Calm Calm - N/A   Overcast
9:55 PM 62.6 °F 60.8 °F 94% 29.60 in 5.0 mi NNE 5.8 mph - N/A   Overcast
10:15 PM 62.6 °F 60.8 °F 94% 29.58 in 10.0 mi NNE 3.5 mph - N/A   Overcast
10:35 PM 62.6 °F 60.8 °F 94% 29.58 in 10.0 mi NE 4.6 mph - N/A   Overcast
11:15 PM 60.8 °F 60.8 °F 100% 29.57 in 7.0 mi NNE 8.1 mph - N/A   Overcast
11:35 PM 59.0 °F 59.0 °F 100% 29.58 in 7.0 mi NNE 10.4 mph - N/A   Overcast
11:55 PM 57.2 °F 55.4 °F 94% 29.58 in 5.0 mi NE 10.4 mph - 0.01 in Rain Light Rain